Time,TemperatureF,DewpointF,PressureIn,WindDirection,WindDirectionDegrees,WindSpeedMPH,WindSpeedGustMPH,Humidity,HourlyPrecipIn,Conditions,Clouds,dailyrainin,SoftwareType,DateUTC
2015-02-01 00:12:00,36.0,30.0,29.89,SSE,160,16.0,21.0,80,-99.99,,,-99.99,,2015-02-01 06:12:00,
2015-02-01 00:22:00,36.0,32.0,29.87,SSE,160,17.0,24.0,86,0.01,,,-99.99,,2015-02-01 06:22:00,
2015-02-01 00:52:00,36.0,32.0,29.86,SSE,160,17.0,22.0,86,0.01,,,-99.99,,2015-02-01 06:52:00,
2015-02-01 01:12:00,36.0,32.0,29.86,South,170,14.0,24.0,86,0.01,,,-99.99,,2015-02-01 07:12:00,
2015-02-01 01:23:00,36.0,32.0,29.84,South,170,16.0,21.0,86,0.02,,,-99.99,,2015-02-01 07:23:00,
2015-02-01 01:52:00,36.0,34.0,29.82,South,170,16.0,23.0,93,0.02,,,-99.99,,2015-02-01 07:52:00,
2015-02-01 02:12:00,37.0,34.0,29.81,South,170,16.0,21.0,86,0.02,,,-99.99,,2015-02-01 08:12:00,
2015-02-01 02:22:00,37.0,34.0,29.82,South,180,12.0,21.0,86,0.04,,,-99.99,,2015-02-01 08:22:00,
2015-02-01 02:52:00,37.0,34.0,29.81,South,190,8.0,-999.0,86,0.04,,,-99.99,,2015-02-01 08:52:00,
2015-02-01 03:13:00,37.0,34.0,29.81,SSW,200,8.0,-999.0,86,0.06,,,-99.99,,2015-02-01 09:13:00,
2015-02-01 03:22:00,37.0,34.0,29.82,WSW,240,3.0,-999.0,86,0.08,,,-99.99,,2015-02-01 09:22:00,
2015-02-01 03:53:00,37.0,34.0,29.81,North,0,0.0,-999.0,86,0.04,,,-99.99,,2015-02-01 09:53:00,
2015-02-01 04:13:00,37.0,34.0,29.80,North,0,0.0,-999.0,86,0.06,,,-99.99,,2015-02-01 10:13:00,
2015-02-01 04:23:00,37.0,36.0,29.78,South,180,3.0,-999.0,93,0.08,,,-99.99,,2015-02-01 10:23:00,
2015-02-01 04:54:00,37.0,36.0,29.77,North,0,0.0,-999.0,93,0.03,,,-99.99,,2015-02-01 10:54:00,
2015-02-01 05:13:00,37.0,36.0,29.78,North,0,0.0,-999.0,93,0.04,,,-99.99,,2015-02-01 11:13:00,
2015-02-01 05:23:00,37.0,36.0,29.77,North,0,0.0,-999.0,93,0.05,,,-99.99,,2015-02-01 11:23:00,
2015-02-01 05:52:00,37.0,36.0,29.75,SE,130,3.0,-999.0,93,0.01,,,-99.99,,2015-02-01 11:52:00,
2015-02-01 06:12:00,36.0,36.0,29.74,SE,140,3.0,-999.0,100,0.01,,,-99.99,,2015-02-01 12:12:00,
2015-02-01 06:22:00,36.0,36.0,29.74,SE,140,5.0,-999.0,100,0.01,,,-99.99,,2015-02-01 12:22:00,
2015-02-01 06:52:00,37.0,36.0,29.72,SSE,150,6.0,-999.0,93,-99.99,,,-99.99,,2015-02-01 12:52:00,
2015-02-01 07:12:00,37.0,36.0,29.72,SSE,150,7.0,-999.0,93,-99.99,,,-99.99,,2015-02-01 13:12:00,
2015-02-01 07:22:00,37.0,36.0,29.72,SSE,160,6.0,-999.0,93,-99.99,,,-99.99,,2015-02-01 13:22:00,
2015-02-01 07:52:00,37.0,36.0,29.72,South,170,5.0,-999.0,93,-99.99,,,-99.99,,2015-02-01 13:52:00,
2015-02-01 08:12:00,37.0,36.0,29.72,South,180,5.0,-999.0,93,-99.99,,,-99.99,,2015-02-01 14:12:00,
2015-02-01 08:22:00,37.0,36.0,29.72,South,180,5.0,-999.0,93,0.01,,,-99.99,,2015-02-01 14:22:00,
2015-02-01 08:52:00,39.0,37.0,29.71,SSW,200,6.0,-999.0,93,-99.99,,,-99.99,,2015-02-01 14:52:00,
2015-02-01 09:12:00,39.0,37.0,29.71,SSW,210,6.0,-999.0,93,0.01,,,-99.99,,2015-02-01 15:12:00,
2015-02-01 09:22:00,39.0,37.0,29.71,SSW,210,5.0,-999.0,93,0.01,,,-99.99,,2015-02-01 15:22:00,
2015-02-01 09:54:00,41.0,39.0,29.71,WSW,240,7.0,-999.0,93,-99.99,,,-99.99,,2015-02-01 15:54:00,
2015-02-01 10:13:00,41.0,39.0,29.71,West,260,10.0,-999.0,93,-99.99,,,-99.99,,2015-02-01 16:13:00,
2015-02-01 10:24:00,41.0,39.0,29.71,West,260,14.0,17.0,93,0.01,,,-99.99,,2015-02-01 16:24:00,
2015-02-01 10:53:00,41.0,39.0,29.71,West,260,12.0,-999.0,93,-99.99,,,-99.99,,2015-02-01 16:53:00,
2015-02-01 11:13:00,43.0,41.0,29.71,West,260,8.0,-999.0,93,-99.99,,,-99.99,,2015-02-01 17:13:00,
2015-02-01 11:23:00,43.0,41.0,29.71,West,260,10.0,-999.0,93,-99.99,,,-99.99,,2015-02-01 17:23:00,
2015-02-01 11:52:00,43.0,41.0,29.70,West,260,9.0,-999.0,93,-99.99,,,-99.99,,2015-02-01 17:52:00,
2015-02-01 12:23:00,43.0,41.0,29.69,West,280,12.0,17.0,93,-99.99,,,-99.99,,2015-02-01 18:23:00,
2015-02-01 12:54:00,43.0,39.0,29.69,West,280,14.0,20.0,86,-99.99,,,-99.99,,2015-02-01 18:54:00,
2015-02-01 13:13:00,43.0,39.0,29.69,West,280,13.0,21.0,86,-99.99,,,-99.99,,2015-02-01 19:13:00,
2015-02-01 13:23:00,43.0,41.0,29.68,West,280,16.0,21.0,93,-99.99,,,-99.99,,2015-02-01 19:23:00,
2015-02-01 13:52:00,39.0,37.0,29.70,West,280,18.0,32.0,93,-99.99,,,-99.99,,2015-02-01 19:52:00,
2015-02-01 14:12:00,39.0,37.0,29.70,WNW,300,17.0,25.0,93,-99.99,,,-99.99,,2015-02-01 20:12:00,
2015-02-01 14:22:00,37.0,36.0,29.72,West,280,21.0,30.0,93,-99.99,,,-99.99,,2015-02-01 20:22:00,
2015-02-01 14:52:00,36.0,34.0,29.74,WNW,290,20.0,29.0,93,-99.99,,,-99.99,,2015-02-01 20:52:00,
2015-02-01 15:12:00,36.0,32.0,29.75,WNW,300,16.0,30.0,86,-99.99,,,-99.99,,2015-02-01 21:12:00,
2015-02-01 15:22:00,36.0,32.0,29.76,WNW,300,13.0,23.0,86,-99.99,,,-99.99,,2015-02-01 21:22:00,
2015-02-01 15:53:00,34.0,32.0,29.78,WNW,290,17.0,23.0,93,-99.99,,,-99.99,,2015-02-01 21:53:00,
2015-02-01 16:13:00,34.0,32.0,29.78,WNW,300,17.0,24.0,93,-99.99,,,-99.99,,2015-02-01 22:13:00,
2015-02-01 16:23:00,34.0,32.0,29.80,West,280,18.0,30.0,93,-99.99,,,-99.99,,2015-02-01 22:23:00,
2015-02-01 16:53:00,32.0,30.0,29.82,WNW,300,21.0,28.0,92,-99.99,,,-99.99,,2015-02-01 22:53:00,
2015-02-01 17:13:00,32.0,30.0,29.83,WNW,290,18.0,29.0,92,-99.99,,,-99.99,,2015-02-01 23:13:00,
2015-02-01 17:23:00,30.0,28.0,29.84,WNW,300,21.0,29.0,92,-99.99,,,-99.99,,2015-02-01 23:23:00,
2015-02-01 17:52:00,28.0,27.0,29.86,West,280,20.0,25.0,92,-99.99,,,-99.99,,2015-02-01 23:52:00,
2015-02-01 18:12:00,28.0,27.0,29.87,WNW,290,22.0,29.0,92,-99.99,,,-99.99,,2015-02-02 00:12:00,
2015-02-01 18:22:00,28.0,25.0,29.89,WNW,290,21.0,30.0,86,-99.99,,,-99.99,,2015-02-02 00:22:00,
2015-02-01 18:52:00,27.0,25.0,29.91,WNW,300,16.0,31.0,92,-99.99,,,-99.99,,2015-02-02 00:52:00,
2015-02-01 19:12:00,27.0,25.0,29.92,WNW,300,16.0,25.0,92,-99.99,,,-99.99,,2015-02-02 01:12:00,
2015-02-01 19:22:00,27.0,25.0,29.93,WNW,300,18.0,24.0,92,-99.99,,,-99.99,,2015-02-02 01:22:00,
2015-02-01 19:52:00,25.0,23.0,29.94,WNW,300,20.0,29.0,92,-99.99,,,-99.99,,2015-02-02 01:52:00,
2015-02-01 20:11:00,25.0,23.0,29.95,WNW,290,17.0,28.0,92,-99.99,,,-99.99,,2015-02-02 02:11:00,
2015-02-01 20:22:00,25.0,21.0,29.96,WNW,300,16.0,25.0,85,-99.99,,,-99.99,,2015-02-02 02:22:00,